createdAt,value
2022-12-09T00:04:23.146Z,95369.00
2022-12-09T00:07:09.358Z,95368.78
2022-12-09T00:09:55.279Z,95360.53
2022-12-09T00:12:42.633Z,95340.50
2022-12-09T00:15:28.572Z,95351.06
2022-12-09T00:18:14.508Z,95359.50
2022-12-09T00:21:14.552Z,95355.16
2022-12-09T00:24:03.822Z,95350.63
2022-12-09T00:26:49.630Z,95346.72
2022-12-09T00:29:35.472Z,95352.09
2022-12-09T00:32:21.372Z,95361.56
2022-12-09T00:35:08.533Z,95359.09
2022-12-09T00:37:54.805Z,95370.47
2022-12-09T00:40:40.771Z,95375.19
2022-12-09T00:43:26.714Z,95373.78
2022-12-09T00:46:14.051Z,95374.97
2022-12-09T00:49:00.151Z,95387.19
2022-12-09T00:51:46.491Z,95365.03
2022-12-09T00:54:32.885Z,95369.41
2022-12-09T00:57:19.300Z,95371.06
2022-12-09T01:00:07.292Z,95357.63
2022-12-09T01:02:53.941Z,95337.34
2022-12-09T01:05:41.275Z,95358.03
2022-12-09T01:08:27.519Z,95350.38
2022-12-09T01:11:19.959Z,95338.00
2022-12-09T01:14:07.143Z,95354.31
2022-12-09T01:16:53.529Z,95363.81
2022-12-09T01:19:40.535Z,95343.56
2022-12-09T01:22:26.530Z,95328.91
2022-12-09T01:25:12.935Z,95347.34
2022-12-09T01:27:58.701Z,95354.75
2022-12-09T01:30:45.156Z,95340.09
2022-12-09T01:33:31.083Z,95347.94
2022-12-09T01:36:19.643Z,95341.53
2022-12-09T01:39:05.752Z,95352.28
2022-12-09T01:41:52.902Z,95358.25
2022-12-09T01:44:38.881Z,95364.84
2022-12-09T01:47:25.075Z,95356.00
2022-12-09T01:50:11.735Z,95364.03
2022-12-09T01:52:57.897Z,95365.69
2022-12-09T01:55:45.854Z,95367.31
2022-12-09T01:58:32.124Z,95338.00
2022-12-09T02:01:18.384Z,95347.69
2022-12-09T02:04:04.887Z,95354.13
2022-12-09T02:06:51.118Z,95354.94
2022-12-09T02:09:39.458Z,95349.97
2022-12-09T02:12:30.664Z,95345.44
2022-12-09T02:15:31.676Z,95317.53
2022-12-09T02:18:41.536Z,95350.16
2022-12-09T02:21:34.045Z,95355.75
2022-12-09T02:24:34.804Z,95336.97
2022-12-09T02:27:25.347Z,95338.81
2022-12-09T02:30:21.896Z,95330.16
2022-12-09T02:33:28.818Z,95325.81
2022-12-09T02:36:17.714Z,95319.63
2022-12-09T02:39:06.862Z,95320.03
2022-12-09T02:41:53.503Z,95333.84
2022-12-09T02:44:40.835Z,95310.53
2022-12-09T02:47:31.882Z,95328.88
2022-12-09T02:50:23.496Z,95324.16
2022-12-09T02:53:12.942Z,95336.53
2022-12-09T02:55:59.311Z,95309.47
2022-12-09T02:58:50.337Z,95336.75
2022-12-09T03:01:50.063Z,95333.84
2022-12-09T03:04:39.252Z,95336.31
2022-12-09T03:07:32.706Z,95323.50
2022-12-09T03:10:27.641Z,95334.06
2022-12-09T03:13:20.050Z,95309.25
2022-12-09T03:16:13.298Z,95324.13
2022-12-09T03:19:33.759Z,95334.44
2022-12-09T03:22:21.353Z,95314.44
2022-12-09T03:25:21.964Z,95315.69
2022-12-09T03:28:12.383Z,95326.00
2022-12-09T03:31:02.596Z,95317.53
2022-12-09T03:33:52.946Z,95313.00
2022-12-09T03:36:40.968Z,95309.72
2022-12-09T03:39:30.170Z,95302.69
2022-12-09T03:42:23.546Z,95305.38
2022-12-09T03:45:12.268Z,95295.44
2022-12-09T03:47:58.662Z,95293.84
2022-12-09T03:50:56.008Z,95295.44
2022-12-09T03:53:46.760Z,95291.16
2022-12-09T03:56:37.889Z,95283.91
2022-12-09T03:59:25.671Z,95302.91
2022-12-09T04:02:11.872Z,95294.44
2022-12-09T04:04:58.027Z,95290.94
2022-12-09T04:07:44.080Z,95316.53
2022-12-09T04:10:32.851Z,95298.97
2022-12-09T04:13:19.174Z,95282.25
2022-12-09T04:16:06.023Z,95300.22
2022-12-09T04:18:52.312Z,95275.06
2022-12-09T04:21:38.587Z,95270.53
2022-12-09T04:24:24.956Z,95287.03
2022-12-09T04:27:12.577Z,95292.41
2022-12-09T04:29:58.944Z,95277.53
2022-12-09T04:32:45.282Z,95296.50
2022-12-09T04:35:31.472Z,95293.44
2022-12-09T04:38:17.470Z,95304.56
2022-12-09T04:41:04.262Z,95312.59
2022-12-09T04:43:50.397Z,95278.75
2022-12-09T04:46:36.642Z,95281.03
2022-12-09T04:49:22.897Z,95272.38
2022-12-09T04:52:08.811Z,95275.28
2022-12-09T04:54:54.720Z,95266.63
2022-12-09T04:57:40.901Z,95260.41
2022-12-09T05:00:26.921Z,95279.00
2022-12-09T05:03:13.113Z,95269.91
2022-12-09T05:05:59.828Z,95266.00
2022-12-09T05:08:46.588Z,95263.31
2022-12-09T05:11:33.040Z,95258.97
2022-12-09T05:14:19.147Z,95262.88
2022-12-09T05:17:07.264Z,95263.31
2022-12-09T05:19:53.699Z,95265.16
2022-12-09T05:22:40.075Z,95244.72
2022-12-09T05:25:26.074Z,95277.75
2022-12-09T05:28:12.271Z,95278.78
2022-12-09T05:31:07.086Z,95252.38
2022-12-09T05:33:54.089Z,95272.16
2022-12-09T05:36:40.443Z,95287.25
2022-12-09T05:39:26.751Z,95275.25
2022-12-09T05:42:12.948Z,95288.03
2022-12-09T05:45:00.453Z,95294.66
2022-12-09T05:47:47.021Z,95300.03
2022-12-09T05:50:33.519Z,95300.84
2022-12-09T05:53:19.885Z,95292.16
2022-12-09T05:56:06.201Z,95308.06
2022-12-09T05:58:54.016Z,95310.13
2022-12-09T06:01:39.864Z,95288.69
2022-12-09T06:04:26.185Z,95303.94
2022-12-09T06:07:12.372Z,95322.50
2022-12-09T06:09:59.535Z,95323.56
2022-12-09T06:12:45.997Z,95314.69
2022-12-09T06:15:33.793Z,95307.28
2022-12-09T06:18:20.607Z,95300.06
2022-12-09T06:21:12.165Z,95289.31
2022-12-09T06:23:59.321Z,95300.25
2022-12-09T06:26:46.003Z,95297.38
2022-12-09T06:29:32.112Z,95293.44
2022-12-09T06:32:19.022Z,95301.72
2022-12-09T06:35:08.070Z,95274.06
2022-12-09T06:37:54.725Z,95299.00
2022-12-09T06:40:44.763Z,95313.69
2022-12-09T06:43:31.141Z,95308.72
2022-12-09T06:46:25.364Z,95308.91
2022-12-09T06:49:12.728Z,95319.66
2022-12-09T06:51:58.859Z,95308.72
2022-12-09T06:54:44.964Z,95306.03
2022-12-09T06:57:31.284Z,95292.00
2022-12-09T07:00:17.744Z,95278.34
2022-12-09T07:03:04.773Z,95269.91
2022-12-09T07:05:50.928Z,95298.19
2022-12-09T07:08:37.696Z,95298.41
2022-12-09T07:11:24.072Z,95312.63
2022-12-09T07:14:11.087Z,95315.75
2022-12-09T07:16:57.539Z,95325.66
2022-12-09T07:19:44.195Z,95328.56
2022-12-09T07:22:32.546Z,95322.53
2022-12-09T07:25:18.669Z,95329.78
2022-12-09T07:28:04.998Z,95315.50
2022-12-09T07:30:50.878Z,95343.00
2022-12-09T07:33:36.921Z,95330.19
2022-12-09T07:36:25.279Z,95339.28
2022-12-09T07:39:14.183Z,95333.53
2022-12-09T07:42:00.817Z,95321.94
2022-12-09T07:44:50.387Z,95320.09
2022-12-09T07:47:36.686Z,95304.22
2022-12-09T07:50:23.421Z,95303.78
2022-12-09T07:53:09.902Z,95300.06
2022-12-09T07:55:56.514Z,95305.03
2022-12-09T07:58:44.043Z,95282.75
2022-12-09T08:01:30.601Z,95282.50
2022-12-09T08:04:17.315Z,95267.84
2022-12-09T08:07:03.978Z,95273.44
2022-12-09T08:09:50.682Z,95293.03
2022-12-09T08:12:36.867Z,95271.16
2022-12-09T08:15:23.232Z,95277.16
2022-12-09T08:18:09.506Z,95281.91
2022-12-09T08:20:56.042Z,95260.84
2022-12-09T08:23:42.863Z,95259.00
2022-12-09T08:26:31.401Z,95273.63
2022-12-09T08:29:18.296Z,95281.28
2022-12-09T08:32:05.433Z,95272.19
2022-12-09T08:34:52.003Z,95266.22
2022-12-09T08:37:38.175Z,95283.56
2022-12-09T08:40:24.625Z,95266.00
2022-12-09T08:43:10.791Z,95265.81
2022-12-09T08:46:00.350Z,95248.88
2022-12-09T08:48:46.486Z,95250.31
2022-12-09T08:51:32.801Z,95249.06
2022-12-09T08:54:19.879Z,95259.19
2022-12-09T08:57:06.432Z,95198.31
2022-12-09T08:59:53.213Z,95239.97
2022-12-09T09:02:39.410Z,95219.13
2022-12-09T09:05:26.009Z,95224.06
2022-12-09T09:08:12.633Z,95225.47
2022-12-09T09:10:59.426Z,95220.31
2022-12-09T09:13:48.967Z,95205.25
2022-12-09T09:16:38.797Z,95214.75
2022-12-09T09:19:26.165Z,95199.44
2022-12-09T09:22:13.208Z,95182.31
2022-12-09T09:24:59.555Z,95195.94
2022-12-09T09:27:45.883Z,95195.53
2022-12-09T09:30:32.313Z,95185.38
2022-12-09T09:33:18.733Z,95182.28
2022-12-09T09:36:23.134Z,95184.31
2022-12-09T09:39:20.041Z,95187.66
2022-12-09T09:42:09.081Z,95176.00
2022-12-09T09:44:56.260Z,95153.56
2022-12-09T09:47:55.226Z,95150.81
2022-12-09T09:51:02.965Z,95153.91
2022-12-09T09:53:51.329Z,95157.41
2022-12-09T09:56:46.500Z,95150.16
2022-12-09T09:59:41.131Z,95136.81
2022-12-09T10:02:58.779Z,95138.03
2022-12-09T10:05:58.525Z,95140.16
2022-12-09T10:08:56.253Z,95143.38
2022-12-09T10:11:56.296Z,95129.97
2022-12-09T10:15:15.131Z,95126.00
2022-12-09T10:18:11.307Z,95122.03
2022-12-09T10:20:58.137Z,95121.44
2022-12-09T10:23:45.989Z,95124.28
2022-12-09T10:26:32.787Z,95104.44
2022-12-09T10:29:25.926Z,95116.00
2022-12-09T10:32:17.076Z,95128.22
2022-12-09T10:35:23.590Z,95094.03
2022-12-09T10:38:16.250Z,95106.13
2022-12-09T10:42:11.351Z,95122.72
2022-12-09T10:45:07.915Z,95118.16
2022-12-09T10:47:54.819Z,95066.78
2022-12-09T10:50:42.012Z,95113.78
2022-12-09T10:53:29.304Z,95106.16
2022-12-09T10:56:21.836Z,95105.09
2022-12-09T10:59:27.260Z,95085.88
2022-12-09T11:02:13.650Z,95062.31
2022-12-09T11:05:24.515Z,95078.84
2022-12-09T11:08:22.221Z,95067.41
2022-12-09T11:11:09.345Z,95061.00
2022-12-09T11:13:55.918Z,95078.31
2022-12-09T11:16:47.479Z,95077.41
2022-12-09T11:19:36.327Z,95086.53
2022-12-09T11:22:33.522Z,95076.59
2022-12-09T11:25:23.915Z,95112.09
2022-12-09T11:28:16.520Z,95096.81
2022-12-09T11:31:32.663Z,95079.94
2022-12-09T11:34:26.304Z,95084.81
2022-12-09T11:37:12.476Z,95069.09
2022-12-09T11:39:58.687Z,95066.47
2022-12-09T11:42:50.819Z,95046.44
2022-12-09T11:45:39.310Z,95055.00
2022-12-09T11:48:35.050Z,95045.50
2022-12-09T11:51:36.587Z,95037.59
2022-12-09T11:54:26.495Z,95030.72
2022-12-09T11:57:31.004Z,95029.31
2022-12-09T12:00:23.384Z,95013.34
2022-12-09T12:03:20.630Z,94994.91
2022-12-09T12:06:17.068Z,94999.47
2022-12-09T12:09:08.116Z,95002.25
2022-12-09T12:12:03.371Z,95022.44
2022-12-09T12:14:49.301Z,95013.31
2022-12-09T12:17:43.054Z,95026.09
2022-12-09T12:20:58.427Z,95028.25
2022-12-09T12:24:14.862Z,95028.78
2022-12-09T12:27:18.881Z,95035.59
2022-12-09T12:30:19.856Z,95019.59
2022-12-09T12:33:59.655Z,95039.94
2022-12-09T12:36:35.990Z,95036.34
2022-12-09T12:39:54.365Z,95025.31
2022-12-09T12:43:10.301Z,95023.94
2022-12-09T12:46:18.830Z,95016.88
2022-12-09T12:49:36.284Z,95015.63
2022-12-09T12:55:46.864Z,95018.44
2022-12-09T12:58:51.809Z,94990.78
2022-12-09T13:02:02.482Z,95002.50
2022-12-09T13:05:00.916Z,94985.47
2022-12-09T13:08:07.698Z,94972.47
2022-12-09T13:10:56.107Z,94979.63
2022-12-09T13:13:49.245Z,94977.16
2022-12-09T13:16:40.279Z,94984.81
2022-12-09T13:19:41.164Z,94980.25
2022-12-09T13:22:32.978Z,94973.38
2022-12-09T13:25:50.352Z,94965.81
2022-12-09T13:29:00.157Z,94972.53
2022-12-09T13:31:55.443Z,94958.47
2022-12-09T13:34:50.079Z,94961.53
2022-12-09T13:37:44.234Z,94953.47
2022-12-09T13:40:36.691Z,94933.06
2022-12-09T13:43:26.114Z,94941.28
2022-12-09T13:46:21.594Z,94932.91
2022-12-09T13:49:18.214Z,94935.91
2022-12-09T13:52:04.488Z,94948.16
2022-12-09T13:54:51.195Z,94965.06
2022-12-09T13:57:47.695Z,94963.41
2022-12-09T14:00:34.577Z,94963.41
2022-12-09T14:03:29.658Z,94960.88
2022-12-09T14:06:22.140Z,94952.66
2022-12-09T14:09:17.237Z,94965.78
2022-12-09T14:12:10.593Z,94965.34
2022-12-09T14:14:58.629Z,94963.25
2022-12-09T14:17:47.986Z,94950.09
2022-12-09T14:20:39.161Z,94945.53
2022-12-09T14:23:25.418Z,94960.47
2022-12-09T14:26:54.364Z,94962.19
2022-12-09T14:29:55.510Z,94956.56
2022-12-09T14:32:50.443Z,94956.34
2022-12-09T14:35:44.404Z,94949.56
2022-12-09T14:39:07.791Z,94945.94
2022-12-09T14:41:59.543Z,94954.25
2022-12-09T14:44:53.397Z,94961.28
2022-12-09T14:47:46.127Z,94932.72
2022-12-09T14:50:31.895Z,94944.31
2022-12-09T14:53:22.542Z,94926.69
2022-12-09T14:56:15.401Z,94934.81
2022-12-09T14:59:09.640Z,94945.22
2022-12-09T15:02:19.084Z,94934.72
2022-12-09T15:05:16.121Z,94919.94
2022-12-09T15:08:02.205Z,94932.41
2022-12-09T15:10:48.084Z,94899.78
2022-12-09T15:13:36.151Z,94919.75
2022-12-09T15:16:25.009Z,94907.66
2022-12-09T15:19:36.926Z,94922.31
2022-12-09T15:22:28.260Z,94906.75
2022-12-09T15:25:18.872Z,94901.50
2022-12-09T15:28:14.060Z,94901.59
2022-12-09T15:31:06.319Z,94906.44
2022-12-09T15:33:58.516Z,94902.63
2022-12-09T15:36:48.333Z,94902.19
2022-12-09T15:39:45.347Z,94908.75
2022-12-09T15:42:33.216Z,94903.25
2022-12-09T15:45:25.871Z,94900.34
2022-12-09T15:48:18.864Z,94904.69
2022-12-09T15:51:09.095Z,94871.38
2022-12-09T15:54:07.734Z,94885.69
2022-12-09T15:56:55.482Z,94904.69
2022-12-09T15:59:43.324Z,94880.75
2022-12-09T16:02:31.145Z,94891.22
2022-12-09T16:05:25.168Z,94891.53
2022-12-09T16:08:11.239Z,94888.03
2022-12-09T16:10:58.689Z,94884.88
2022-12-09T16:13:58.994Z,94898.78
2022-12-09T16:16:54.474Z,94893.97
2022-12-09T16:19:40.729Z,94889.91
2022-12-09T16:22:30.647Z,94891.09
2022-12-09T16:25:21.733Z,94873.25
2022-12-09T16:28:07.705Z,94877.75
2022-12-09T16:30:59.280Z,94880.69
2022-12-09T16:33:49.447Z,94862.97
2022-12-09T16:36:35.679Z,94884.75
2022-12-09T16:39:24.761Z,94867.78
2022-12-09T16:42:43.646Z,94872.47
2022-12-09T16:45:33.062Z,94852.22
2022-12-09T16:48:20.503Z,94861.13
2022-12-09T16:51:11.780Z,94844.97
2022-12-09T16:53:58.849Z,94847.78
2022-12-09T16:56:45.574Z,94846.81
2022-12-09T16:59:37.545Z,94854.66
2022-12-09T17:02:33.559Z,94864.53
2022-12-09T17:05:19.522Z,94869.34
2022-12-09T17:08:05.730Z,94855.50
2022-12-09T17:10:51.870Z,94851.44
2022-12-09T17:13:38.049Z,94862.41
2022-12-09T17:16:26.712Z,94869.78
2022-12-09T17:19:13.165Z,94884.19
2022-12-09T17:21:59.441Z,94868.78
2022-12-09T17:24:45.692Z,94872.50
2022-12-09T17:27:32.618Z,94855.19
2022-12-09T17:30:18.701Z,94857.38
2022-12-09T17:33:05.026Z,94871.91
2022-12-09T17:35:51.786Z,94873.34
2022-12-09T17:38:38.008Z,94844.84
2022-12-09T17:41:24.309Z,94857.75
2022-12-09T17:44:10.653Z,94858.09
2022-12-09T17:46:56.997Z,94863.38
2022-12-09T17:49:42.907Z,94880.00
2022-12-09T17:52:29.020Z,94866.28
2022-12-09T17:55:14.912Z,94876.03
2022-12-09T17:58:01.073Z,94853.06
2022-12-09T18:00:47.958Z,94853.19
2022-12-09T18:03:54.869Z,94852.13
2022-12-09T18:06:45.290Z,94826.09
2022-12-09T18:09:31.176Z,94846.47
2022-12-09T18:12:17.191Z,94844.25
2022-12-09T18:15:03.958Z,94842.59
2022-12-09T18:17:50.134Z,94854.31
2022-12-09T18:20:38.599Z,94871.63
2022-12-09T18:23:24.600Z,94843.53
2022-12-09T18:26:16.798Z,94858.47
2022-12-09T18:29:02.921Z,94851.47
2022-12-09T18:31:54.182Z,94839.41
2022-12-09T18:34:40.715Z,94828.63
2022-12-09T18:37:27.286Z,94807.69
2022-12-09T18:40:13.688Z,94784.69
2022-12-09T18:43:00.022Z,94818.19
2022-12-09T18:45:46.619Z,94801.31
2022-12-09T18:48:33.239Z,94826.25
2022-12-09T18:51:21.258Z,94808.34
2022-12-09T18:54:08.546Z,94819.94
2022-12-09T18:56:55.819Z,94796.34
2022-12-09T18:59:42.096Z,94808.66
2022-12-09T19:02:28.612Z,94820.69
2022-12-09T19:05:14.908Z,94804.34
2022-12-09T19:08:01.193Z,94786.88
2022-12-09T19:10:54.593Z,94807.47
2022-12-09T19:13:41.076Z,94823.13
2022-12-09T19:16:28.710Z,94799.56
2022-12-09T19:19:17.528Z,94816.63
2022-12-09T19:22:06.361Z,94806.91
2022-12-09T19:24:52.523Z,94830.97
2022-12-09T19:27:38.910Z,94829.56
2022-12-09T19:30:24.878Z,94818.94
2022-12-09T19:33:11.418Z,94832.53
2022-12-09T19:35:57.628Z,94814.00
2022-12-09T19:38:43.689Z,94813.31
2022-12-09T19:41:29.588Z,94805.19
2022-12-09T19:44:30.986Z,94822.81
2022-12-09T19:47:23.672Z,94847.09
2022-12-09T19:50:10.380Z,94840.16
2022-12-09T19:52:56.842Z,94844.66
2022-12-09T19:55:43.708Z,94834.72
2022-12-09T19:58:31.291Z,94854.84
2022-12-09T20:01:22.990Z,94858.91
2022-12-09T20:04:46.329Z,94854.72
2022-12-09T20:07:17.516Z,94850.84
2022-12-09T20:10:04.441Z,94854.19
2022-12-09T20:12:51.065Z,94851.00
2022-12-09T20:15:37.660Z,94838.00
2022-12-09T20:18:23.741Z,94842.34
2022-12-09T20:21:12.096Z,94832.53
2022-12-09T20:24:02.477Z,94836.94
2022-12-09T20:26:48.871Z,94817.31
2022-12-09T20:29:38.026Z,94827.97
2022-12-09T20:32:24.818Z,94811.81
2022-12-09T20:35:11.222Z,94822.56
2022-12-09T20:37:57.500Z,94811.31
2022-12-09T20:40:43.492Z,94822.44
2022-12-09T20:43:30.453Z,94824.00
2022-12-09T20:46:18.492Z,94827.03
2022-12-09T20:49:04.640Z,94814.88
2022-12-09T20:51:50.642Z,94808.19
2022-12-09T20:54:36.681Z,94813.44
2022-12-09T20:57:22.743Z,94798.97
2022-12-09T21:00:10.056Z,94794.53
2022-12-09T21:02:56.438Z,94790.38
2022-12-09T21:05:42.197Z,94799.91
2022-12-09T21:08:31.788Z,94795.78
2022-12-09T21:11:20.299Z,94787.28
2022-12-09T21:14:07.118Z,94798.84
2022-12-09T21:16:53.466Z,94802.00
2022-12-09T21:19:39.616Z,94803.78
2022-12-09T21:22:26.507Z,94788.19
2022-12-09T21:25:12.644Z,94794.91
2022-12-09T21:27:58.901Z,94773.56
2022-12-09T21:30:44.761Z,94782.94
2022-12-09T21:33:30.871Z,94775.19
2022-12-09T21:36:23.450Z,94765.47
2022-12-09T21:39:13.027Z,94780.25
2022-12-09T21:41:59.076Z,94764.44
2022-12-09T21:44:45.347Z,94765.81
2022-12-09T21:47:32.063Z,94767.63
2022-12-09T21:50:18.203Z,94769.56
2022-12-09T21:53:04.305Z,94775.69
2022-12-09T21:55:51.942Z,94761.59
2022-12-09T21:58:38.220Z,94771.19
2022-12-09T22:01:26.941Z,94769.44
2022-12-09T22:04:16.172Z,94775.44
2022-12-09T22:07:02.286Z,94777.31
2022-12-09T22:09:49.665Z,94786.91
2022-12-09T22:12:35.845Z,94786.19
2022-12-09T22:15:22.333Z,94792.47
2022-12-09T22:18:08.201Z,94789.09
2022-12-09T22:21:23.669Z,94781.50
2022-12-09T22:24:03.111Z,94799.03
2022-12-09T22:26:49.018Z,94789.44
2022-12-09T22:29:34.867Z,94799.56
2022-12-09T22:32:20.795Z,94815.66
2022-12-09T22:35:07.481Z,94819.38
2022-12-09T22:37:53.517Z,94823.56
2022-12-09T22:40:40.082Z,94822.72
2022-12-09T22:43:26.503Z,94812.81
2022-12-09T22:46:15.885Z,94801.44
2022-12-09T22:49:04.979Z,94788.81
2022-12-09T22:51:54.099Z,94772.41
2022-12-09T22:54:42.308Z,94779.91
2022-12-09T22:57:28.195Z,94763.75
2022-12-09T23:00:14.242Z,94759.53
2022-12-09T23:03:00.466Z,94786.28
2022-12-09T23:05:46.763Z,94803.88
2022-12-09T23:08:33.280Z,94786.34
2022-12-09T23:11:21.543Z,94806.91
2022-12-09T23:14:07.371Z,94789.56
2022-12-09T23:16:54.372Z,94806.19
2022-12-09T23:19:40.544Z,94791.09
2022-12-09T23:22:26.511Z,94793.59
2022-12-09T23:25:12.470Z,94771.56
2022-12-09T23:27:58.288Z,94767.00
2022-12-09T23:30:44.358Z,94780.34
2022-12-09T23:33:30.895Z,94783.97
2022-12-09T23:36:23.294Z,94764.88
2022-12-09T23:39:13.745Z,94762.91
2022-12-09T23:41:59.533Z,94731.56
2022-12-09T23:44:45.428Z,94745.72
2022-12-09T23:47:31.192Z,94755.78
2022-12-09T23:50:17.077Z,94744.78
2022-12-09T23:53:03.029Z,94759.41
2022-12-09T23:55:48.992Z,94744.78
2022-12-09T23:58:35.218Z,94757.53
